Time;durP1;ratioP1;P1;durP2;ratioP2;P2;SDS_P1;SDS_P2;PMS_P1;PMS_P2;Temp;Humidity;BMP_temperature;BMP_pressure;BME280_temperature;BME280_humidity;BME280_pressure;Samples;Min_cycle;Max_cycle;Signal;HPM_P1;HPM_P2
2024/01/21 00:00:37;;;;;;;2.83;2.00;;;;;;;-0.25;64.58;95602.69;4179958;28;20049;-67
2024/01/21 00:02:39;;;;;;;3.83;2.35;;;;;;;-0.28;64.14;95601.97;4189449;28;20432;-69
2024/01/21 00:04:41;;;;;;;3.10;2.20;;;;;;;-0.29;64.38;95605.47;4196334;28;20056;-67
2024/01/21 00:06:43;;;;;;;3.35;2.10;;;;;;;-0.22;64.78;95609.44;4190025;28;20044;-66
2024/01/21 00:08:44;;;;;;;4.25;2.30;;;;;;;-0.17;64.17;95615.22;4180861;28;20474;-69
2024/01/21 00:10:46;;;;;;;3.50;2.40;;;;;;;-0.19;63.98;95617.03;4190274;28;20497;-68
2024/01/21 00:12:48;;;;;;;3.35;2.28;;;;;;;-0.10;64.09;95614.00;4189042;28;20116;-69
2024/01/21 00:14:50;;;;;;;4.80;2.30;;;;;;;-0.27;64.73;95617.38;4184608;28;20106;-68
2024/01/21 00:16:52;;;;;;;4.13;2.33;;;;;;;-0.31;64.16;95608.13;4186223;28;20529;-69
2024/01/21 00:18:54;;;;;;;3.95;2.35;;;;;;;-0.26;64.38;95615.63;4179307;28;20079;-67
2024/01/21 00:20:55;;;;;;;3.75;2.30;;;;;;;-0.14;64.74;95616.81;4187394;28;20178;-69
2024/01/21 00:22:57;;;;;;;3.40;2.30;;;;;;;-0.05;64.77;95616.38;4176853;28;20083;-68
2024/01/21 00:24:59;;;;;;;3.67;2.60;;;;;;;-0.04;64.07;95621.47;4185471;28;20472;-68
2024/01/21 00:27:01;;;;;;;4.72;2.35;;;;;;;0.05;64.06;95609.88;4176190;28;20136;-69
2024/01/21 00:29:03;;;;;;;4.43;2.70;;;;;;;0.04;63.99;95618.50;4180169;28;20075;-68
2024/01/21 00:31:05;;;;;;;3.85;2.47;;;;;;;0.11;64.04;95617.31;4187370;28;20067;-68
2024/01/21 00:33:07;;;;;;;4.50;2.60;;;;;;;0.13;63.58;95614.66;4186701;28;20507;-67
2024/01/21 00:35:09;;;;;;;4.43;2.85;;;;;;;0.03;63.36;95614.28;4190806;28;20110;-68
2024/01/21 00:37:11;;;;;;;5.28;3.17;;;;;;;-0.01;64.59;95611.00;4192702;28;20650;-69
2024/01/21 00:39:13;;;;;;;4.88;2.80;;;;;;;0.00;64.22;95624.72;4188616;28;20051;-69
2024/01/21 00:41:15;;;;;;;4.60;2.70;;;;;;;0.09;64.28;95620.88;4184345;28;20044;-69
2024/01/21 00:43:17;;;;;;;3.67;2.40;;;;;;;0.03;63.88;95616.03;4188161;28;20044;-69
2024/01/21 00:45:19;;;;;;;4.32;2.63;;;;;;;-0.16;64.74;95616.88;4191229;28;20450;-68
2024/01/21 00:47:21;;;;;;;3.65;2.42;;;;;;;-0.04;64.76;95618.88;4184443;28;20444;-68
2024/01/21 00:49:23;;;;;;;4.40;2.22;;;;;;;0.07;64.38;95617.53;4188874;28;20557;-69
2024/01/21 00:51:25;;;;;;;3.65;2.47;;;;;;;0.01;63.87;95618.66;4191764;28;20068;-68
2024/01/21 00:53:27;;;;;;;2.83;2.00;;;;;;;-0.07;64.40;95626.72;4183740;28;20056;-68
2024/01/21 00:55:29;;;;;;;4.03;2.75;;;;;;;-0.11;64.56;95627.78;4194305;28;20455;-69
2024/01/21 00:57:31;;;;;;;3.70;2.40;;;;;;;-0.09;64.84;95625.97;4194224;28;20052;-69
2024/01/21 00:59:33;;;;;;;3.90;2.60;;;;;;;-0.21;65.21;95624.00;4189392;28;20163;-68
2024/01/21 01:01:37;;;;;;;3.03;2.35;;;;;;;-0.60;66.08;95627.47;4181113;28;20041;-69
2024/01/21 01:03:40;;;;;;;2.75;2.08;;;;;;;-0.68;66.76;95624.41;4182475;28;20126;-68
2024/01/21 01:05:42;;;;;;;3.17;2.42;;;;;;;-0.92;67.49;95626.31;4187420;28;20105;-68
2024/01/21 01:07:44;;;;;;;4.53;2.40;;;;;;;-0.83;67.77;95631.06;4191267;28;20403;-67
2024/01/21 01:09:46;;;;;;;3.70;2.22;;;;;;;-1.05;68.07;95629.41;4188420;28;20049;-68
2024/01/21 01:11:48;;;;;;;4.15;2.20;;;;;;;-0.99;68.31;95630.03;4187874;28;20095;-67
2024/01/21 01:13:49;;;;;;;3.38;2.05;;;;;;;-1.13;68.64;95625.50;4179586;28;20045;-67
2024/01/21 01:15:52;;;;;;;2.97;2.13;;;;;;;-1.23;69.03;95625.03;4209788;28;20047;-66
2024/01/21 01:17:54;;;;;;;3.20;2.50;;;;;;;-1.26;69.18;95628.59;4195008;28;20384;-68
2024/01/21 01:19:56;;;;;;;4.30;2.70;;;;;;;-1.08;69.14;95626.13;4182163;28;20048;-68
2024/01/21 01:21:58;;;;;;;3.55;2.42;;;;;;;-1.02;68.82;95623.31;4192143;28;20062;-67
2024/01/21 01:24:00;;;;;;;2.97;2.38;;;;;;;-1.12;68.73;95627.16;4183075;28;20107;-69
2024/01/21 01:26:02;;;;;;;3.92;2.70;;;;;;;-1.05;68.47;95621.69;4193270;28;20124;-69
2024/01/21 01:28:04;;;;;;;3.25;2.38;;;;;;;-1.17;68.35;95631.69;4194672;28;20055;-67
2024/01/21 01:30:07;;;;;;;3.55;2.38;;;;;;;-1.09;69.35;95627.03;4189778;28;20059;-68
2024/01/21 01:32:09;;;;;;;4.00;2.25;;;;;;;-1.28;68.96;95621.84;4194068;28;20068;-66
2024/01/21 01:34:12;;;;;;;3.25;2.28;;;;;;;-1.24;69.29;95621.66;4192589;28;20052;-68
2024/01/21 01:36:14;;;;;;;3.38;2.30;;;;;;;-1.18;69.31;95624.84;4180163;28;20049;-67
2024/01/21 01:38:16;;;;;;;3.72;2.35;;;;;;;-0.97;68.95;95623.09;4181950;28;20094;-67
2024/01/21 01:40:20;;;;;;;2.90;2.08;;;;;;;-0.82;68.25;95625.00;4188015;28;20049;-66
2024/01/21 01:42:21;;;;;;;4.47;2.53;;;;;;;-0.88;68.25;95623.53;4177882;28;20090;-67
2024/01/21 01:44:23;;;;;;;3.58;2.45;;;;;;;-0.93;68.67;95628.03;4185303;28;20040;-69
2024/01/21 01:46:25;;;;;;;3.65;2.40;;;;;;;-0.73;68.53;95624.63;4189756;28;20055;-67
2024/01/21 01:48:28;;;;;;;3.42;2.40;;;;;;;-0.48;67.59;95628.66;4189260;28;20048;-67
2024/01/21 01:50:31;;;;;;;3.53;2.38;;;;;;;-0.31;66.82;95627.88;4185535;28;20044;-68
2024/01/21 01:52:32;;;;;;;2.90;2.10;;;;;;;-0.15;66.29;95626.28;4187143;28;20419;-68
2024/01/21 01:54:34;;;;;;;3.10;2.30;;;;;;;-0.12;65.83;95627.88;4186336;28;20052;-67
2024/01/21 01:56:36;;;;;;;3.95;2.40;;;;;;;-0.03;66.00;95633.41;4188721;28;20471;-68
2024/01/21 01:58:40;;;;;;;3.75;2.40;;;;;;;-0.07;65.13;95634.47;4185267;28;20048;-67
2024/01/21 02:00:42;;;;;;;4.40;2.40;;;;;;;-0.08;65.60;95627.66;4181320;28;20368;-67
2024/01/21 02:02:45;;;;;;;3.60;2.35;;;;;;;-0.10;65.57;95632.03;4181277;28;20494;-68
2024/01/21 02:04:47;;;;;;;3.85;2.45;;;;;;;-0.30;66.13;95632.13;4192691;28;20051;-68
2024/01/21 02:06:49;;;;;;;3.88;2.40;;;;;;;-0.23;66.40;95636.09;4190613;28;20059;-69
2024/01/21 02:08:51;;;;;;;4.07;2.72;;;;;;;-0.47;66.66;95632.91;4185694;28;20041;-68
2024/01/21 02:10:52;;;;;;;3.90;2.50;;;;;;;-0.38;66.58;95632.47;4183251;28;20045;-68
2024/01/21 02:12:54;;;;;;;3.85;2.53;;;;;;;-0.36;66.35;95633.25;4187596;28;20051;-68
2024/01/21 02:14:56;;;;;;;3.28;2.33;;;;;;;-0.40;65.90;95639.44;4191181;28;20110;-67
2024/01/21 02:16:58;;;;;;;3.70;2.40;;;;;;;-0.39;66.09;95638.53;4198101;28;20071;-68
2024/01/21 02:19:02;;;;;;;3.60;2.03;;;;;;;-0.34;66.27;95633.19;4186218;28;20080;-69
2024/01/21 02:21:04;;;;;;;3.30;2.17;;;;;;;-0.23;66.06;95639.50;4164339;28;20454;-68
2024/01/21 02:23:10;;;;;;;4.15;2.00;;;;;;;-0.26;65.70;95637.09;4186180;28;20392;-66
2024/01/21 02:25:11;;;;;;;2.70;2.00;;;;;;;-0.15;65.46;95643.44;4179168;28;20509;-69
2024/01/21 02:27:13;;;;;;;2.85;1.95;;;;;;;-0.42;65.51;95642.06;4187582;28;20070;-68
2024/01/21 02:29:15;;;;;;;3.38;2.35;;;;;;;-0.72;66.39;95651.16;4190972;28;20105;-68
2024/01/21 02:31:20;;;;;;;3.60;2.17;;;;;;;-0.53;66.96;95644.31;4178364;28;20136;-68
2024/01/21 02:33:22;;;;;;;3.35;2.10;;;;;;;-0.51;66.37;95649.38;4188624;28;20156;-67
2024/01/21 02:35:24;;;;;;;2.95;2.22;;;;;;;-0.66;66.82;95648.34;4185713;28;20925;-68
2024/01/21 02:37:27;;;;;;;3.97;2.30;;;;;;;-0.64;67.07;95651.69;4180377;28;20360;-68
2024/01/21 02:39:29;;;;;;;3.47;2.38;;;;;;;-0.75;67.07;95654.72;4183161;28;20045;-68
2024/01/21 02:41:31;;;;;;;3.60;2.20;;;;;;;-0.79;67.14;95658.31;4188977;28;20049;-69
2024/01/21 02:43:32;;;;;;;3.20;2.15;;;;;;;-0.90;67.36;95655.38;4184640;28;20653;-69
2024/01/21 02:45:35;;;;;;;3.55;2.33;;;;;;;-0.99;67.46;95654.06;4189141;28;20051;-68
2024/01/21 02:47:36;;;;;;;3.67;2.55;;;;;;;-1.15;67.82;95660.72;4192315;28;20625;-69
2024/01/21 02:49:38;;;;;;;3.63;2.47;;;;;;;-1.27;68.44;95668.06;4188240;28;20222;-71
2024/01/21 02:51:40;;;;;;;3.40;2.20;;;;;;;-1.39;69.09;95668.56;4199484;28;20045;-67
2024/01/21 02:53:42;;;;;;;3.75;2.13;;;;;;;-1.17;69.20;95649.69;4195757;28;20424;-68
2024/01/21 02:55:44;;;;;;;2.83;2.00;;;;;;;-0.98;68.83;95662.59;4190986;28;20048;-68
2024/01/21 02:57:46;;;;;;;3.25;2.05;;;;;;;-1.22;67.31;95659.31;4183321;28;20095;-67
2024/01/21 02:59:48;;;;;;;3.28;2.10;;;;;;;-1.13;68.23;95661.50;4181722;28;20127;-69
2024/01/21 03:01:49;;;;;;;3.67;2.50;;;;;;;-1.05;67.67;95667.16;4188343;28;20057;-66
2024/01/21 03:03:51;;;;;;;3.20;2.30;;;;;;;-1.06;67.56;95665.47;4206831;28;20044;-68
2024/01/21 03:05:53;;;;;;;3.15;2.20;;;;;;;-1.07;67.44;95676.69;4191022;28;20045;-68
2024/01/21 03:07:55;;;;;;;7.35;2.30;;;;;;;-1.51;67.90;95675.03;4187213;28;20557;-69
2024/01/21 03:09:57;;;;;;;3.63;2.40;;;;;;;-1.82;69.98;95675.44;4195900;28;20309;-69
2024/01/21 03:11:59;;;;;;;3.72;2.67;;;;;;;-1.90;70.13;95685.16;4188638;28;20076;-69
2024/01/21 03:14:00;;;;;;;3.95;2.63;;;;;;;-1.92;70.06;95679.25;4184494;28;20186;-68
2024/01/21 03:16:03;;;;;;;4.47;2.53;;;;;;;-2.03;70.25;95678.81;4190955;28;20458;-68
2024/01/21 03:18:04;;;;;;;3.90;2.38;;;;;;;-1.86;70.51;95687.53;4189813;28;20044;-68
2024/01/21 03:20:06;;;;;;;3.80;2.70;;;;;;;-1.99;70.35;95683.78;4188298;28;20044;-67
2024/01/21 03:22:08;;;;;;;4.30;2.50;;;;;;;-2.07;70.87;95685.81;4181931;28;20731;-67
2024/01/21 03:24:10;;;;;;;4.32;2.40;;;;;;;-1.90;70.83;95680.03;4181803;28;20448;-68
2024/01/21 03:26:12;;;;;;;3.63;2.60;;;;;;;-1.88;69.85;95683.38;4190823;28;20088;-66
2024/01/21 03:28:14;;;;;;;3.58;2.72;;;;;;;-1.86;70.38;95689.28;4189712;28;20605;-67
2024/01/21 03:30:16;;;;;;;4.40;2.47;;;;;;;-1.90;69.87;95690.28;4191981;28;20634;-67
2024/01/21 03:32:17;;;;;;;5.75;2.72;;;;;;;-1.79;69.81;95690.69;4191702;28;20102;-68
2024/01/21 03:34:19;;;;;;;3.33;2.40;;;;;;;-1.64;69.74;95696.97;4186772;28;20151;-68
2024/01/21 03:36:21;;;;;;;4.78;2.40;;;;;;;-1.56;68.91;95691.53;4184445;28;20068;-69
2024/01/21 03:38:23;;;;;;;5.22;2.65;;;;;;;-1.41;68.60;95688.34;4177484;28;20133;-68
2024/01/21 03:40:25;;;;;;;3.85;2.50;;;;;;;-1.25;67.91;95691.97;4186900;28;20110;-70
2024/01/21 03:42:26;;;;;;;3.67;2.50;;;;;;;-1.13;67.46;95688.03;4185647;28;20135;-67
2024/01/21 03:44:28;;;;;;;4.07;2.35;;;;;;;-1.14;66.46;95694.09;4186232;28;20048;-68
2024/01/21 03:46:30;;;;;;;3.28;2.47;;;;;;;-1.03;67.06;95703.94;4182063;28;20523;-67
2024/01/21 03:48:32;;;;;;;4.18;2.75;;;;;;;-0.85;67.26;95700.56;4178089;28;20137;-67
2024/01/21 03:50:34;;;;;;;4.47;2.63;;;;;;;-0.68;66.30;95701.59;4205500;28;20162;-67
2024/01/21 03:52:36;;;;;;;3.25;2.40;;;;;;;-0.62;65.49;95699.59;4190608;28;20055;-67
2024/01/21 03:54:38;;;;;;;3.13;2.38;;;;;;;-0.54;65.24;95704.38;4181934;28;20052;-67
2024/01/21 03:56:39;;;;;;;3.58;2.15;;;;;;;-0.54;64.70;95699.25;4191459;28;20049;-66
2024/01/21 03:58:41;;;;;;;4.72;2.35;;;;;;;-0.49;64.96;95702.47;4174560;28;20049;-67
2024/01/21 04:00:43;;;;;;;3.20;2.42;;;;;;;-0.51;64.30;95708.59;4193928;28;20044;-68
2024/01/21 04:02:45;;;;;;;4.00;2.55;;;;;;;-0.59;64.21;95708.91;4179704;28;20045;-68
2024/01/21 04:04:47;;;;;;;3.30;2.38;;;;;;;-0.88;64.03;95705.88;4191817;28;20080;-68
2024/01/21 04:06:49;;;;;;;3.58;2.20;;;;;;;-1.29;65.63;95718.72;4191660;28;20048;-67
2024/01/21 04:08:51;;;;;;;3.30;2.20;;;;;;;-1.52;66.78;95719.63;4193765;28;20106;-67
2024/01/21 04:10:54;;;;;;;5.00;2.40;;;;;;;-1.33;67.00;95724.03;4193563;28;20052;-66
2024/01/21 04:12:55;;;;;;;5.53;3.00;;;;;;;-1.17;65.98;95724.25;4187774;28;20055;-68
2024/01/21 04:14:57;;;;;;;3.17;2.30;;;;;;;-1.53;65.53;95733.34;4187830;28;20372;-69
2024/01/21 04:16:59;;;;;;;3.58;2.47;;;;;;;-1.35;66.44;95726.66;4194836;28;20040;-68
2024/01/21 04:19:01;;;;;;;3.92;3.08;;;;;;;-1.27;65.85;95734.91;4188988;28;20055;-68
2024/01/21 04:21:03;;;;;;;5.15;3.35;;;;;;;-1.51;65.58;95739.28;4191142;28;20044;-69
2024/01/21 04:23:05;;;;;;;5.93;4.68;;;;;;;-1.66;66.18;95737.31;4187551;28;20050;-68
2024/01/21 04:25:07;;;;;;;7.22;4.55;;;;;;;-1.71;66.34;95737.50;4189049;28;20052;-68
2024/01/21 04:27:09;;;;;;;7.47;5.45;;;;;;;-1.79;67.04;95739.50;4189948;28;20048;-67
2024/01/21 04:29:11;;;;;;;6.53;4.07;;;;;;;-1.60;67.06;95746.53;4192133;28;20086;-69
2024/01/21 04:31:12;;;;;;;10.43;4.50;;;;;;;-1.47;66.41;95738.25;4186169;28;20040;-67
2024/01/21 04:33:14;;;;;;;7.35;5.05;;;;;;;-1.40;65.53;95753.44;4193936;28;20123;-67
2024/01/21 04:35:17;;;;;;;6.28;4.07;;;;;;;-1.27;65.16;95758.06;4190180;28;20406;-68
2024/01/21 04:37:18;;;;;;;7.22;4.40;;;;;;;-1.21;64.82;95751.81;4187987;28;20495;-68
2024/01/21 04:39:21;;;;;;;6.28;4.40;;;;;;;-1.16;64.65;95757.63;4186225;28;20084;-66
2024/01/21 04:41:23;;;;;;;7.83;4.03;;;;;;;-1.11;64.70;95754.84;4189354;28;20067;-68
2024/01/21 04:43:25;;;;;;;6.68;4.22;;;;;;;-1.02;64.26;95748.50;4185883;28;20514;-69
2024/01/21 04:45:27;;;;;;;6.03;4.05;;;;;;;-1.06;63.86;95764.03;4189935;28;20052;-68
2024/01/21 04:47:29;;;;;;;5.57;4.13;;;;;;;-1.08;63.89;95765.00;4203684;28;20113;-68
2024/01/21 04:49:31;;;;;;;5.72;3.75;;;;;;;-1.15;63.45;95767.00;4195904;28;20060;-69
2024/01/21 04:51:33;;;;;;;5.20;3.35;;;;;;;-1.12;63.21;95763.44;4192414;28;20068;-67
2024/01/21 04:53:37;;;;;;;5.97;4.13;;;;;;;-1.03;63.27;95757.94;4192213;28;20048;-69
2024/01/21 04:55:39;;;;;;;6.45;3.72;;;;;;;-0.99;63.55;95758.63;4205640;28;20397;-68
2024/01/21 04:57:41;;;;;;;5.22;3.75;;;;;;;-0.97;62.97;95762.00;4192924;28;20053;-68
2024/01/21 04:59:43;;;;;;;4.85;3.42;;;;;;;-0.91;62.73;95762.56;4182409;28;20056;-69
2024/01/21 05:01:51;;;;;;;6.47;3.75;;;;;;;-0.97;62.52;95760.25;4191708;28;20049;-68
2024/01/21 05:03:53;;;;;;;6.07;3.50;;;;;;;-0.98;62.25;95770.63;4183614;28;20337;-69
2024/01/21 05:05:57;;;;;;;6.50;4.07;;;;;;;-0.94;62.56;95782.47;4188697;28;20064;-68
2024/01/21 05:07:59;;;;;;;;;;;;;;;-0.90;62.14;95777.13;4190412;28;20139;-69
2024/01/21 05:10:00;;;;;;;6.15;3.92;;;;;;;-0.97;62.32;95778.25;4191766;28;19928;-70
2024/01/21 05:12:02;;;;;;;5.68;3.17;;;;;;;-0.96;62.02;95779.94;4186116;28;20395;-67
2024/01/21 05:14:04;;;;;;;5.28;3.60;;;;;;;-0.92;62.20;95780.66;4183485;28;20056;-70
2024/01/21 05:16:06;;;;;;;5.65;3.22;;;;;;;-0.97;62.03;95780.00;4191019;28;20571;-68
2024/01/21 05:18:08;;;;;;;4.15;3.15;;;;;;;-0.93;61.95;95784.13;4177367;28;20532;-68
2024/01/21 05:20:11;;;;;;;5.68;2.78;;;;;;;-0.85;62.22;95782.06;4186774;28;20071;-69
2024/01/21 05:22:13;;;;;;;5.40;2.88;;;;;;;-0.84;61.53;95784.59;4178986;28;20049;-69
2024/01/21 05:24:14;;;;;;;5.45;3.00;;;;;;;-0.85;61.30;95792.38;4182590;28;20053;-68
2024/01/21 05:26:17;;;;;;;3.75;2.88;;;;;;;-0.90;61.57;95797.69;4178677;28;20045;-66
2024/01/21 05:28:18;;;;;;;3.92;2.70;;;;;;;-0.89;61.66;95799.34;4179681;28;20562;-69
2024/01/21 05:30:20;;;;;;;5.72;3.47;;;;;;;-0.92;61.70;95808.97;4188138;28;20513;-69
2024/01/21 05:32:22;;;;;;;4.70;3.20;;;;;;;-0.89;61.79;95814.78;4187302;28;20084;-67
2024/01/21 05:34:24;;;;;;;5.20;3.70;;;;;;;-0.89;61.49;95811.38;4202643;28;20226;-69
2024/01/21 05:36:26;;;;;;;6.25;4.00;;;;;;;-0.90;61.60;95810.56;4191718;28;20044;-69
2024/01/21 05:38:28;;;;;;;6.43;3.75;;;;;;;-0.88;61.35;95813.91;4185018;28;20044;-68
2024/01/21 05:40:29;;;;;;;6.13;3.97;;;;;;;-0.92;61.31;95814.09;4188484;28;20044;-68
2024/01/21 05:42:31;;;;;;;7.55;4.20;;;;;;;-0.93;61.64;95820.97;4189040;28;20075;-68
2024/01/21 05:44:34;;;;;;;8.40;4.35;;;;;;;-0.98;61.36;95817.75;4186048;28;20518;-70
2024/01/21 05:46:35;;;;;;;7.05;4.25;;;;;;;-0.95;61.27;95821.94;4187780;28;20048;-68
2024/01/21 05:48:38;;;;;;;5.97;4.00;;;;;;;-1.00;61.37;95824.69;4190393;28;20447;-69
2024/01/21 05:50:39;;;;;;;6.78;4.38;;;;;;;-0.96;61.35;95828.81;4189372;28;20041;-67
2024/01/21 05:52:41;;;;;;;7.82;5.40;;;;;;;-0.93;61.53;95827.84;4189777;28;20056;-70
2024/01/21 05:54:43;;;;;;;7.45;4.97;;;;;;;-0.98;61.51;95830.59;4173295;28;20045;-68
2024/01/21 05:56:45;;;;;;;7.13;4.65;;;;;;;-0.96;61.88;95835.69;4189382;28;20052;-69
2024/01/21 05:58:47;;;;;;;8.63;5.28;;;;;;;-1.08;61.45;95831.88;4187062;28;20259;-68
2024/01/21 06:00:49;;;;;;;9.10;5.35;;;;;;;-1.14;62.13;95832.09;4184891;28;20098;-70
2024/01/21 06:02:51;;;;;;;6.40;4.40;;;;;;;-1.07;62.27;95836.13;4191935;28;20040;-69
2024/01/21 06:04:53;;;;;;;7.68;4.53;;;;;;;-1.05;61.88;95842.06;4191308;28;20459;-70
2024/01/21 06:06:55;;;;;;;6.47;4.60;;;;;;;-1.15;61.71;95843.31;4188262;28;20044;-69
2024/01/21 06:08:57;;;;;;;6.70;4.75;;;;;;;-1.14;62.08;95848.38;4184832;28;20144;-68
2024/01/21 06:10:59;;;;;;;6.55;5.05;;;;;;;-1.30;62.40;95845.56;4186335;28;20084;-69
2024/01/21 06:13:01;;;;;;;7.70;4.65;;;;;;;-1.23;62.60;95848.72;4185605;28;20052;-68
2024/01/21 06:15:04;;;;;;;7.32;5.15;;;;;;;-1.18;62.38;95846.84;4185231;28;20124;-68
2024/01/21 06:17:05;;;;;;;6.32;4.70;;;;;;;-1.15;62.28;95848.44;4204930;28;20056;-68
2024/01/21 06:19:07;;;;;;;8.93;5.28;;;;;;;-1.13;62.02;95850.06;4189302;28;20056;-69
2024/01/21 06:21:09;;;;;;;6.35;4.90;;;;;;;-0.97;62.28;95849.44;4189416;28;20383;-68
2024/01/21 06:23:11;;;;;;;7.10;5.30;;;;;;;-0.94;61.57;95852.75;4185054;28;20070;-69
2024/01/21 06:25:13;;;;;;;6.30;5.20;;;;;;;-0.93;61.72;95856.16;4189189;28;20083;-68
2024/01/21 06:27:15;;;;;;;7.70;5.15;;;;;;;-0.84;61.80;95851.47;4205668;28;20060;-66
2024/01/21 06:29:16;;;;;;;7.40;5.43;;;;;;;-0.92;61.41;95857.84;4173119;28;20591;-66
2024/01/21 06:31:19;;;;;;;8.70;5.55;;;;;;;-0.96;61.35;95849.38;4195240;28;20041;-69
2024/01/21 06:33:20;;;;;;;8.23;5.60;;;;;;;-0.84;61.57;95850.63;4186396;28;20488;-69
2024/01/21 06:35:22;;;;;;;8.55;5.88;;;;;;;-0.70;60.86;95850.09;4197415;28;20052;-71
2024/01/21 06:37:24;;;;;;;7.75;4.90;;;;;;;-0.78;60.98;95844.41;4180026;28;20819;-69
2024/01/21 06:39:26;;;;;;;9.55;6.13;;;;;;;-0.74;61.20;95846.78;4185297;28;20040;-69
2024/01/21 06:41:28;;;;;;;7.40;5.28;;;;;;;-0.65;60.49;95843.00;4191867;28;20056;-69
2024/01/21 06:43:30;;;;;;;6.82;5.45;;;;;;;-0.62;60.90;95846.28;4186214;28;20127;-69
2024/01/21 06:45:32;;;;;;;7.25;5.70;;;;;;;-0.57;60.57;95853.00;4188145;28;20044;-69
2024/01/21 06:47:34;;;;;;;6.78;5.13;;;;;;;-0.47;60.55;95852.53;4190438;28;20044;-68
2024/01/21 06:49:36;;;;;;;8.73;5.20;;;;;;;-0.43;60.11;95851.53;4178175;28;20083;-69
2024/01/21 06:51:46;;;;;;;7.53;5.63;;;;;;;-0.37;59.91;95859.88;4186720;28;20044;-69
2024/01/21 06:53:48;;;;;;;7.47;5.55;;;;;;;-0.27;60.21;95858.59;4191315;28;20044;-69
2024/01/21 06:55:50;;;;;;;8.48;5.63;;;;;;;-0.32;59.43;95869.09;4191329;28;20492;-69
2024/01/21 06:57:52;;;;;;;7.55;5.65;;;;;;;-0.24;59.72;95867.03;4192403;28;20523;-70
2024/01/21 06:59:54;;;;;;;7.63;5.35;;;;;;;-0.13;58.89;95876.03;4182091;28;20048;-66
2024/01/21 07:01:56;;;;;;;8.48;6.07;;;;;;;-0.07;59.25;95879.16;4192438;28;20110;-69
2024/01/21 07:03:57;;;;;;;9.10;6.15;;;;;;;-0.01;58.92;95878.91;4204534;28;20052;-68
2024/01/21 07:05:59;;;;;;;7.82;6.20;;;;;;;-0.08;58.76;95877.50;4191875;28;20078;-68
2024/01/21 07:08:01;;;;;;;11.43;5.85;;;;;;;-0.07;58.93;95874.03;4189949;28;20526;-68
2024/01/21 07:10:03;;;;;;;8.30;5.63;;;;;;;0.01;58.82;95876.28;4191715;28;20040;-68
2024/01/21 07:12:05;;;;;;;8.63;5.50;;;;;;;-0.05;58.31;95882.53;4185946;28;20079;-70
2024/01/21 07:14:07;;;;;;;8.13;5.45;;;;;;;-0.23;58.43;95883.31;4183057;28;20598;-69
2024/01/21 07:16:09;;;;;;;7.72;5.63;;;;;;;-0.34;59.58;95893.22;4191039;28;20458;-68
2024/01/21 07:18:11;;;;;;;8.23;5.63;;;;;;;-0.38;59.51;95886.53;4184916;28;20058;-69
2024/01/21 07:20:13;;;;;;;8.25;5.50;;;;;;;-0.90;60.79;95892.06;4181525;28;20139;-70
2024/01/21 07:22:15;;;;;;;8.25;5.68;;;;;;;-0.82;60.87;95895.13;4190422;28;20373;-70
2024/01/21 07:24:16;;;;;;;8.07;5.95;;;;;;;-0.91;60.47;95896.34;4179933;28;20053;-69
2024/01/21 07:26:19;;;;;;;7.03;5.53;;;;;;;-0.84;60.88;95902.06;4191389;28;20049;-69
2024/01/21 07:28:21;;;;;;;7.10;5.05;;;;;;;-0.66;60.41;95896.22;4189513;28;20778;-69
2024/01/21 07:30:22;;;;;;;6.97;4.90;;;;;;;-0.46;60.05;95904.84;4190894;28;20140;-69
2024/01/21 07:32:24;;;;;;;6.97;5.13;;;;;;;-0.36;59.71;95902.75;4196477;28;20048;-70
2024/01/21 07:34:27;;;;;;;6.60;5.00;;;;;;;-0.35;59.08;95909.56;4184568;28;20049;-69
2024/01/21 07:36:29;;;;;;;6.47;4.93;;;;;;;-0.53;59.40;95906.03;4192066;28;20053;-68
2024/01/21 07:38:31;;;;;;;7.05;5.22;;;;;;;-0.42;59.44;95917.53;4192389;28;20324;-70
2024/01/21 07:40:33;;;;;;;7.75;5.53;;;;;;;-0.44;59.43;95906.47;4190357;28;20049;-70
2024/01/21 07:42:34;;;;;;;9.50;6.35;;;;;;;-0.23;59.40;95903.91;4179005;28;20041;-69
2024/01/21 07:44:36;;;;;;;7.70;6.05;;;;;;;-0.15;58.73;95907.03;4180487;28;20057;-70
2024/01/21 07:46:38;;;;;;;7.97;5.75;;;;;;;-0.09;58.49;95911.88;4187579;28;20113;-67
2024/01/21 07:48:40;;;;;;;8.25;6.22;;;;;;;0.07;58.22;95906.09;4193243;28;20048;-69
2024/01/21 07:50:42;;;;;;;8.00;6.05;;;;;;;0.23;57.87;95906.28;4193631;28;20570;-69
2024/01/21 07:52:44;;;;;;;8.05;6.18;;;;;;;0.20;56.96;95902.91;4188876;28;20084;-70
2024/01/21 07:54:46;;;;;;;7.45;5.90;;;;;;;0.31;57.30;95914.50;4192059;28;20049;-69
2024/01/21 07:56:48;;;;;;;10.18;6.22;;;;;;;-0.09;57.44;95911.88;4195591;28;20053;-70
2024/01/21 07:58:50;;;;;;;10.60;6.82;;;;;;;-0.48;59.40;95912.63;4192342;28;20059;-68
2024/01/21 08:00:51;;;;;;;11.20;7.45;;;;;;;-0.48;60.13;95912.63;4194998;28;20091;-68
2024/01/21 08:02:54;;;;;;;10.45;7.15;;;;;;;-0.14;60.06;95913.81;4186074;28;20056;-69
2024/01/21 08:04:56;;;;;;;10.70;7.07;;;;;;;-0.07;58.83;95916.97;4187169;28;20049;-70
2024/01/21 08:06:58;;;;;;;11.20;7.45;;;;;;;0.24;58.26;95918.25;4207756;28;20063;-69
2024/01/21 08:09:00;;;;;;;12.25;7.75;;;;;;;-0.37;58.36;95921.66;4190847;28;20479;-70
2024/01/21 08:11:02;;;;;;;11.70;7.10;;;;;;;-0.46;60.00;95920.31;4209941;28;20052;-70
2024/01/21 08:13:04;;;;;;;12.40;8.43;;;;;;;-0.36;60.09;95923.34;4187515;28;20072;-70
2024/01/21 08:15:06;;;;;;;11.40;7.20;;;;;;;-0.01;59.54;95919.31;4191976;28;20053;-72
2024/01/21 08:17:08;;;;;;;12.25;7.28;;;;;;;0.33;57.77;95918.69;4190012;28;20056;-70
2024/01/21 08:19:11;;;;;;;11.13;7.95;;;;;;;0.36;57.44;95921.13;4188779;28;20041;-69
2024/01/21 08:21:13;;;;;;;10.57;7.13;;;;;;;0.44;57.34;95920.78;4188517;28;20048;-68
2024/01/21 08:23:15;;;;;;;10.48;7.60;;;;;;;0.68;57.41;95924.03;4185830;28;20052;-70
2024/01/21 08:25:17;;;;;;;9.65;6.55;;;;;;;0.99;56.04;95925.19;4185412;28;20052;-69
2024/01/21 08:27:19;;;;;;;10.73;7.43;;;;;;;0.94;55.21;95924.59;4186041;28;20063;-70
2024/01/21 08:29:21;;;;;;;9.20;6.50;;;;;;;0.04;56.68;95929.41;4184291;28;20587;-70
2024/01/21 08:31:23;;;;;;;10.77;7.55;;;;;;;-0.43;58.39;95939.06;4190734;28;20471;-70
2024/01/21 08:33:24;;;;;;;13.43;8.85;;;;;;;-0.98;60.26;95946.34;4181879;28;20074;-69
2024/01/21 08:35:26;;;;;;;11.00;7.75;;;;;;;-1.32;61.19;95951.91;4183943;28;20136;-69
2024/01/21 08:37:28;;;;;;;14.57;9.43;;;;;;;-1.20;61.51;95945.50;4192171;28;20133;-70
2024/01/21 08:39:30;;;;;;;13.50;10.07;;;;;;;-1.30;60.93;95948.41;4183710;28;20062;-71
2024/01/21 08:41:34;;;;;;;16.02;10.93;;;;;;;-1.01;61.52;95940.47;4189888;28;20091;-70
2024/01/21 08:43:36;;;;;;;14.25;9.93;;;;;;;-0.53;60.44;95950.59;4188077;28;20060;-70
2024/01/21 08:45:38;;;;;;;11.73;9.13;;;;;;;0.02;59.04;95946.66;4182639;28;20060;-70
2024/01/21 08:47:40;;;;;;;14.20;10.50;;;;;;;0.52;57.54;95944.50;4184888;28;20049;-70
2024/01/21 08:49:42;;;;;;;16.90;11.77;;;;;;;0.74;56.53;95940.97;4181255;28;20053;-71
2024/01/21 08:51:45;;;;;;;17.35;11.50;;;;;;;0.82;56.28;95939.72;4190975;28;20057;-69
2024/01/21 08:53:47;;;;;;;14.35;11.48;;;;;;;1.20;55.88;95946.59;4181350;28;20613;-69
2024/01/21 08:55:49;;;;;;;12.85;9.07;;;;;;;1.36;54.55;95942.41;4193678;28;20048;-70
2024/01/21 08:57:51;;;;;;;9.70;7.38;;;;;;;1.47;54.62;95939.31;4186847;28;20048;-69
2024/01/21 08:59:53;;;;;;;10.18;6.68;;;;;;;1.66;54.66;95947.00;4192469;28;20506;-70
2024/01/21 09:01:55;;;;;;;10.25;6.82;;;;;;;1.68;54.15;95952.09;4199979;28;20072;-71
2024/01/21 09:03:56;;;;;;;8.68;6.28;;;;;;;1.83;53.34;95951.38;4180955;28;20527;-71
2024/01/21 09:05:58;;;;;;;8.30;6.53;;;;;;;0.54;54.67;95954.75;4179210;28;20053;-71
2024/01/21 09:08:02;;;;;;;8.68;5.95;;;;;;;0.45;56.76;95948.25;4192746;28;20098;-70
2024/01/21 09:10:04;;;;;;;9.60;6.75;;;;;;;0.90;56.09;95944.50;4186670;28;20082;-69
2024/01/21 09:12:07;;;;;;;11.45;7.22;;;;;;;1.29;55.33;95945.34;4192909;28;20045;-71
2024/01/21 09:14:10;;;;;;;9.70;7.22;;;;;;;1.67;54.37;95942.69;4189195;28;20537;-71
2024/01/21 09:16:19;;;;;;;9.20;6.35;;;;;;;1.87;53.64;95939.13;4186190;28;20728;-72
2024/01/21 09:18:22;;;;;;;6.07;4.68;;;;;;;2.09;52.58;95938.88;4192236;28;20063;-70
2024/01/21 09:20:24;;;;;;;5.90;3.90;;;;;;;2.27;51.49;95942.28;4190278;28;20061;-72
2024/01/21 09:22:26;;;;;;;6.50;4.53;;;;;;;0.90;52.14;95939.34;4193378;28;20044;-70
2024/01/21 09:24:27;;;;;;;7.43;4.10;;;;;;;0.86;54.12;95937.84;4188613;28;20167;-70
2024/01/21 09:26:30;;;;;;;7.15;5.20;;;;;;;0.99;54.74;95944.13;4193842;28;20054;-71
2024/01/21 09:28:32;;;;;;;8.05;5.20;;;;;;;0.02;55.78;95944.09;4193330;28;20384;-71
2024/01/21 09:30:34;;;;;;;7.63;5.80;;;;;;;0.06;57.31;95943.06;4185988;28;20052;-71
2024/01/21 09:32:36;;;;;;;8.90;6.20;;;;;;;-0.52;58.41;95948.88;4192491;28;20048;-70
2024/01/21 09:34:43;;;;;;;8.02;5.90;;;;;;;-0.63;58.82;95944.16;4187614;28;20055;-70